createdAt,value
2023-05-20T00:01:52.975Z,95013.78
2023-05-20T00:04:19.657Z,95012.34
2023-05-20T00:06:46.640Z,95007.19
2023-05-20T00:09:13.283Z,95000.41
2023-05-20T00:11:39.972Z,95005.91
2023-05-20T00:14:06.689Z,94999.44
2023-05-20T00:16:33.353Z,95002.34
2023-05-20T00:19:00.403Z,94997.13
2023-05-20T00:21:27.126Z,94995.03
2023-05-20T00:23:53.751Z,95002.47
2023-05-20T00:26:21.449Z,94998.13
2023-05-20T00:28:53.639Z,94994.06
2023-05-20T00:31:20.545Z,94991.31
2023-05-20T00:33:47.191Z,94986.28
2023-05-20T00:36:14.174Z,94985.31
2023-05-20T00:38:40.740Z,94989.38
2023-05-20T00:41:07.662Z,94980.63
2023-05-20T00:43:34.584Z,94984.66
2023-05-20T00:46:02.043Z,94993.19
2023-05-20T00:48:38.911Z,94989.97
2023-05-20T00:51:07.621Z,95002.22
2023-05-20T00:53:36.185Z,94999.63
2023-05-20T00:56:04.424Z,94993.38
2023-05-20T00:58:31.951Z,95000.09
2023-05-20T01:00:58.796Z,94993.97
2023-05-20T01:03:25.932Z,94989.47
2023-05-20T01:05:52.696Z,94986.06
2023-05-20T01:08:19.549Z,94985.63
2023-05-20T01:10:49.342Z,94988.19
2023-05-20T01:13:19.982Z,94988.31
2023-05-20T01:15:49.444Z,94984.78
2023-05-20T01:18:20.471Z,94978.81
2023-05-20T01:20:51.246Z,94971.06
2023-05-20T01:23:17.954Z,94972.81
2023-05-20T01:25:44.627Z,94976.56
2023-05-20T01:28:17.922Z,94977.03
2023-05-20T01:30:51.099Z,94973.81
2023-05-20T01:33:21.838Z,94962.50
2023-05-20T01:35:49.039Z,94959.78
2023-05-20T01:38:19.281Z,94958.63
2023-05-20T01:40:47.791Z,94955.59
2023-05-20T01:43:17.409Z,94953.66
2023-05-20T01:45:45.205Z,94955.13
2023-05-20T01:48:12.702Z,94952.69
2023-05-20T01:50:40.771Z,94950.09
2023-05-20T01:53:10.469Z,94956.75
2023-05-20T01:55:37.274Z,94959.81
2023-05-20T01:58:04.880Z,94959.16
2023-05-20T02:00:33.983Z,94959.16
2023-05-20T02:03:00.921Z,94961.44
2023-05-20T02:05:27.796Z,94960.63
2023-05-20T02:07:54.922Z,94955.47
2023-05-20T02:10:22.698Z,94952.41
2023-05-20T02:12:49.473Z,94945.31
2023-05-20T02:15:16.481Z,94936.09
2023-05-20T02:17:46.101Z,94931.88
2023-05-20T02:20:14.316Z,94936.91
2023-05-20T02:22:40.926Z,94933.03
2023-05-20T02:25:08.566Z,94942.38
2023-05-20T02:27:36.707Z,94945.78
2023-05-20T02:30:03.572Z,94946.72
2023-05-20T02:32:30.254Z,94958.88
2023-05-20T02:34:57.160Z,94958.50
2023-05-20T02:37:23.840Z,94955.13
2023-05-20T02:39:50.647Z,94960.31
2023-05-20T02:42:17.522Z,94964.50
2023-05-20T02:44:44.127Z,94963.69
2023-05-20T02:47:10.993Z,94953.81
2023-05-20T02:49:37.586Z,94963.22
2023-05-20T02:52:05.021Z,94957.19
2023-05-20T02:54:31.618Z,94958.19
2023-05-20T02:56:58.471Z,94961.75
2023-05-20T02:59:25.156Z,94954.00
2023-05-20T03:01:52.162Z,94949.13
2023-05-20T03:04:19.404Z,94945.38
2023-05-20T03:06:46.617Z,94955.53
2023-05-20T03:09:15.492Z,94946.81
2023-05-20T03:11:42.391Z,94946.69
2023-05-20T03:14:09.552Z,94955.41
2023-05-20T03:16:36.686Z,94947.66
2023-05-20T03:19:03.381Z,94947.81
2023-05-20T03:21:30.515Z,94945.38
2023-05-20T03:23:57.591Z,94947.31
2023-05-20T03:26:25.789Z,94942.47
2023-05-20T03:28:52.468Z,94945.53
2023-05-20T03:31:19.366Z,94949.38
2023-05-20T03:33:46.325Z,94960.19
2023-05-20T03:36:13.098Z,94961.78
2023-05-20T03:38:39.899Z,94962.22
2023-05-20T03:41:06.769Z,94965.03
2023-05-20T03:43:34.005Z,94965.97
2023-05-20T03:46:01.552Z,94962.94
2023-05-20T03:48:28.833Z,94964.88
2023-05-20T03:50:56.086Z,94957.59
2023-05-20T03:53:22.924Z,94946.94
2023-05-20T03:55:49.504Z,94946.94
2023-05-20T03:58:16.754Z,94943.91
2023-05-20T04:00:43.550Z,94943.38
2023-05-20T04:03:10.790Z,94943.41
2023-05-20T04:05:37.744Z,94938.09
2023-05-20T04:08:13.794Z,94941.97
2023-05-20T04:10:43.818Z,94944.72
2023-05-20T04:13:11.974Z,94942.59
2023-05-20T04:15:39.483Z,94936.50
2023-05-20T04:18:06.414Z,94936.50
2023-05-20T04:20:33.356Z,94929.41
2023-05-20T04:23:01.210Z,94933.75
2023-05-20T04:25:28.181Z,94932.63
2023-05-20T04:27:57.912Z,94930.22
2023-05-20T04:30:24.957Z,94940.53
2023-05-20T04:32:52.353Z,94947.50
2023-05-20T04:35:19.741Z,94950.44
2023-05-20T04:37:48.514Z,94946.88
2023-05-20T04:40:15.973Z,94948.66
2023-05-20T04:42:43.890Z,94940.28
2023-05-20T04:45:12.540Z,94935.91
2023-05-20T04:47:41.804Z,94939.31
2023-05-20T04:50:13.383Z,94943.03
2023-05-20T04:52:43.255Z,94934.94
2023-05-20T04:55:11.788Z,94940.59
2023-05-20T04:57:42.376Z,94937.22
2023-05-20T05:00:10.768Z,94945.16
2023-05-20T05:02:38.185Z,94939.81
2023-05-20T05:05:05.758Z,94949.03
2023-05-20T05:07:32.718Z,94940.50
2023-05-20T05:09:59.455Z,94939.84
2023-05-20T05:12:28.857Z,94941.81
2023-05-20T05:14:55.482Z,94936.63
2023-05-20T05:17:22.641Z,94924.34
2023-05-20T05:19:49.572Z,94931.63
2023-05-20T05:22:16.452Z,94928.38
2023-05-20T05:24:43.569Z,94926.47
2023-05-20T05:27:10.521Z,94926.00
2023-05-20T05:29:37.243Z,94927.47
2023-05-20T05:32:04.530Z,94927.78
2023-05-20T05:34:31.303Z,94926.16
2023-05-20T05:36:58.152Z,94929.75
2023-05-20T05:39:25.058Z,94937.50
2023-05-20T05:41:54.152Z,94933.31
2023-05-20T05:44:21.438Z,94940.09
2023-05-20T05:46:48.822Z,94939.13
2023-05-20T05:49:15.686Z,94941.38
2023-05-20T05:51:42.314Z,94942.19
2023-05-20T05:54:09.166Z,94941.19
2023-05-20T05:56:35.750Z,94950.91
2023-05-20T05:59:04.851Z,94938.78
2023-05-20T06:01:31.875Z,94943.31
2023-05-20T06:03:59.414Z,94943.47
2023-05-20T06:06:27.035Z,94937.47
2023-05-20T06:08:54.143Z,94937.47
2023-05-20T06:11:21.851Z,94943.00
2023-05-20T06:13:48.565Z,94937.47
2023-05-20T06:16:15.572Z,94937.00
2023-05-20T06:18:43.020Z,94933.06
2023-05-20T06:21:09.627Z,94941.19
2023-05-20T06:23:36.731Z,94932.72
2023-05-20T06:26:06.068Z,94927.88
2023-05-20T06:28:33.129Z,94930.59
2023-05-20T06:31:00.255Z,94923.63
2023-05-20T06:33:30.595Z,94927.16
2023-05-20T06:36:01.953Z,94918.56
2023-05-20T06:38:29.095Z,94930.19
2023-05-20T06:40:55.974Z,94926.91
2023-05-20T06:43:22.587Z,94924.53
2023-05-20T06:46:12.441Z,94923.72
2023-05-20T06:48:47.403Z,94918.78
2023-05-20T06:51:14.258Z,94922.56
2023-05-20T06:53:40.886Z,94914.53
2023-05-20T06:56:07.786Z,94928.56
2023-05-20T06:58:34.529Z,94917.25
2023-05-20T07:01:01.410Z,94920.34
2023-05-20T07:03:28.293Z,94919.25
2023-05-20T07:05:55.031Z,94920.16
2023-05-20T07:08:21.645Z,94915.22
2023-05-20T07:10:48.658Z,94913.56
2023-05-20T07:13:18.848Z,94910.56
2023-05-20T07:15:49.672Z,94899.97
2023-05-20T07:18:16.962Z,94894.53
2023-05-20T07:20:47.515Z,94899.25
2023-05-20T07:23:27.559Z,94896.66
2023-05-20T07:25:56.230Z,94898.91
2023-05-20T07:28:23.007Z,94891.88
2023-05-20T07:30:50.720Z,94898.38
2023-05-20T07:33:21.007Z,94893.66
2023-05-20T07:35:48.995Z,94898.28
2023-05-20T07:38:15.684Z,94892.09
2023-05-20T07:40:44.192Z,94890.06
2023-05-20T07:43:11.102Z,94884.66
2023-05-20T07:45:38.168Z,94882.78
2023-05-20T07:48:08.710Z,94881.56
2023-05-20T07:50:36.129Z,94883.81
2023-05-20T07:53:02.980Z,94880.81
2023-05-20T07:55:34.774Z,94884.81
2023-05-20T07:58:01.945Z,94876.97
2023-05-20T08:00:28.763Z,94879.56
2023-05-20T08:02:59.650Z,94875.44
2023-05-20T08:05:32.376Z,94880.66
2023-05-20T08:07:59.746Z,94880.28
2023-05-20T08:10:29.070Z,94886.66
2023-05-20T08:12:56.958Z,94878.34
2023-05-20T08:15:23.952Z,94876.25
2023-05-20T08:17:50.887Z,94879.72
2023-05-20T08:20:18.734Z,94881.94
2023-05-20T08:22:45.313Z,94881.09
2023-05-20T08:25:12.076Z,94881.34
2023-05-20T08:27:39.018Z,94883.03
2023-05-20T08:30:09.896Z,94875.78
2023-05-20T08:32:37.500Z,94878.88
2023-05-20T08:35:05.278Z,94877.66
2023-05-20T08:37:32.247Z,94876.66
2023-05-20T08:39:59.645Z,94874.69
2023-05-20T08:42:26.932Z,94881.66
2023-05-20T08:44:57.577Z,94881.75
2023-05-20T08:47:28.812Z,94880.53
2023-05-20T08:49:55.714Z,94873.69
2023-05-20T08:52:23.231Z,94877.94
2023-05-20T08:54:51.796Z,94871.47
2023-05-20T08:57:20.342Z,94878.50
2023-05-20T08:59:47.106Z,94880.50
2023-05-20T09:02:14.577Z,94871.25
2023-05-20T09:04:41.488Z,94864.44
2023-05-20T09:07:08.474Z,94871.25
2023-05-20T09:09:36.055Z,94874.06
2023-05-20T09:12:03.265Z,94870.38
2023-05-20T09:14:32.963Z,94865.75
2023-05-20T09:16:59.847Z,94872.28
2023-05-20T09:19:26.713Z,94867.88
2023-05-20T09:21:55.097Z,94875.66
2023-05-20T09:24:25.949Z,94876.03
2023-05-20T09:26:53.200Z,94880.91
2023-05-20T09:29:21.814Z,94874.91
2023-05-20T09:31:50.281Z,94887.56
2023-05-20T09:34:17.554Z,94884.75
2023-05-20T09:36:45.328Z,94888.16
2023-05-20T09:39:16.128Z,94886.50
2023-05-20T09:42:06.089Z,94882.03
2023-05-20T09:44:34.086Z,94880.91
2023-05-20T09:47:01.378Z,94878.91
2023-05-20T09:49:30.824Z,94877.84
2023-05-20T09:51:59.711Z,94873.47
2023-05-20T09:54:28.418Z,94879.72
2023-05-20T09:56:57.231Z,94872.00
2023-05-20T09:59:24.914Z,94870.31
2023-05-20T10:01:51.780Z,94864.75
2023-05-20T10:04:20.317Z,94863.81
2023-05-20T10:06:46.999Z,94862.69
2023-05-20T10:09:47.534Z,94860.50
2023-05-20T10:12:21.420Z,94855.94
2023-05-20T10:15:19.969Z,94861.72
2023-05-20T10:17:46.862Z,94856.06
2023-05-20T10:20:13.726Z,94854.25
2023-05-20T10:22:41.156Z,94859.94
2023-05-20T10:25:23.404Z,94847.56
2023-05-20T10:27:50.146Z,94845.44
2023-05-20T10:30:21.958Z,94834.84
2023-05-20T10:32:58.165Z,94840.00
2023-05-20T10:35:26.742Z,94838.19
2023-05-20T10:37:55.048Z,94837.75
2023-05-20T10:40:23.005Z,94839.41
2023-05-20T10:42:49.674Z,94827.69
2023-05-20T10:45:27.847Z,94825.31
2023-05-20T10:47:58.956Z,94826.03
2023-05-20T10:50:28.003Z,94831.00
2023-05-20T10:52:56.408Z,94828.16
2023-05-20T10:55:23.355Z,94819.59
2023-05-20T10:57:51.894Z,94816.63
2023-05-20T11:00:18.817Z,94804.22
2023-05-20T11:02:46.435Z,94808.44
2023-05-20T11:05:13.978Z,94798.97
2023-05-20T11:07:40.682Z,94799.78
2023-05-20T11:10:10.995Z,94794.31
2023-05-20T11:12:37.772Z,94800.56
2023-05-20T11:15:04.966Z,94799.16
2023-05-20T11:17:31.678Z,94797.75
2023-05-20T11:20:01.039Z,94798.53
2023-05-20T11:22:27.866Z,94790.53
2023-05-20T11:24:54.750Z,94794.22
2023-05-20T11:27:21.898Z,94786.13
2023-05-20T11:29:50.947Z,94779.56
2023-05-20T11:32:20.765Z,94783.16
2023-05-20T11:34:51.975Z,94781.56
2023-05-20T11:37:19.006Z,94775.41
2023-05-20T11:39:46.133Z,94779.03
2023-05-20T11:42:15.551Z,94771.72
2023-05-20T11:44:45.531Z,94767.97
2023-05-20T11:47:12.460Z,94760.81
2023-05-20T11:49:42.098Z,94754.59
2023-05-20T11:52:11.221Z,94756.06
2023-05-20T11:54:38.031Z,94761.22
2023-05-20T11:57:06.955Z,94757.13
2023-05-20T11:59:33.970Z,94749.06
2023-05-20T12:02:00.835Z,94750.88
2023-05-20T12:04:27.734Z,94750.34
2023-05-20T12:06:55.723Z,94748.34
2023-05-20T12:09:22.699Z,94737.00
2023-05-20T12:11:49.702Z,94733.88
2023-05-20T12:14:16.364Z,94736.97
2023-05-20T12:16:43.368Z,94734.44
2023-05-20T12:19:10.241Z,94740.91
2023-05-20T12:21:36.937Z,94737.75
2023-05-20T12:24:06.939Z,94736.75
2023-05-20T12:26:35.335Z,94736.72
2023-05-20T12:29:02.117Z,94724.06
2023-05-20T12:31:29.448Z,94724.94
2023-05-20T12:33:56.801Z,94724.41
2023-05-20T12:36:23.704Z,94732.41
2023-05-20T12:38:50.574Z,94724.00
2023-05-20T12:41:17.148Z,94732.00
2023-05-20T12:43:43.866Z,94722.16
2023-05-20T12:46:10.688Z,94723.41
2023-05-20T12:48:37.564Z,94714.03
2023-05-20T12:51:04.353Z,94716.78
2023-05-20T12:53:31.015Z,94716.88
2023-05-20T12:55:57.841Z,94713.47
2023-05-20T12:58:24.498Z,94708.22
2023-05-20T13:00:51.275Z,94705.72
2023-05-20T13:03:18.187Z,94711.03
2023-05-20T13:05:45.333Z,94698.84
2023-05-20T13:08:12.969Z,94703.34
2023-05-20T13:10:39.732Z,94692.72
2023-05-20T13:13:06.804Z,94695.56
2023-05-20T13:15:33.771Z,94693.22
2023-05-20T13:18:01.510Z,94692.53
2023-05-20T13:20:29.792Z,94688.06
2023-05-20T13:22:56.551Z,94687.41
2023-05-20T13:25:23.425Z,94683.13
2023-05-20T13:27:50.113Z,94675.75
2023-05-20T13:30:16.930Z,94674.94
2023-05-20T13:32:43.683Z,94676.69
2023-05-20T13:35:10.736Z,94670.63
2023-05-20T13:37:37.486Z,94679.28
2023-05-20T13:40:04.330Z,94666.50
2023-05-20T13:42:31.380Z,94671.00
2023-05-20T13:44:57.979Z,94650.91
2023-05-20T13:47:24.642Z,94665.78
2023-05-20T13:49:51.247Z,94663.47
2023-05-20T13:52:18.179Z,94664.16
2023-05-20T13:54:47.406Z,94660.91
2023-05-20T13:57:14.488Z,94660.78
2023-05-20T13:59:41.412Z,94662.66
2023-05-20T14:02:08.473Z,94653.09
2023-05-20T14:04:40.023Z,94655.31
2023-05-20T14:07:09.618Z,94656.25
2023-05-20T14:09:36.941Z,94645.75
2023-05-20T14:12:04.357Z,94637.50
2023-05-20T14:14:31.075Z,94642.81
2023-05-20T14:16:57.869Z,94638.44
2023-05-20T14:19:26.844Z,94640.81
2023-05-20T14:21:53.698Z,94636.78
2023-05-20T14:24:21.541Z,94639.06
2023-05-20T14:26:50.254Z,94637.06
2023-05-20T14:29:17.060Z,94633.53
2023-05-20T14:31:43.705Z,94627.13
2023-05-20T14:34:10.995Z,94626.09
2023-05-20T14:36:38.142Z,94629.06
2023-05-20T14:39:05.469Z,94624.50
2023-05-20T14:41:32.152Z,94624.78
2023-05-20T14:43:59.049Z,94625.34
2023-05-20T14:46:26.639Z,94617.34
2023-05-20T14:48:53.372Z,94623.97
2023-05-20T14:51:19.972Z,94616.34
2023-05-20T14:53:46.701Z,94626.53
2023-05-20T14:56:13.323Z,94623.41
2023-05-20T14:58:40.707Z,94619.69
2023-05-20T15:01:07.462Z,94629.19
2023-05-20T15:03:34.614Z,94623.03
2023-05-20T15:06:01.460Z,94633.50
2023-05-20T15:08:28.083Z,94635.91
2023-05-20T15:10:54.955Z,94626.25
2023-05-20T15:13:21.572Z,94630.22
2023-05-20T15:15:48.620Z,94630.59
2023-05-20T15:18:15.246Z,94626.91
2023-05-20T15:20:42.186Z,94638.06
2023-05-20T15:23:09.363Z,94631.47
2023-05-20T15:25:36.166Z,94639.78
2023-05-20T15:28:03.291Z,94640.81
2023-05-20T15:30:30.088Z,94647.81
2023-05-20T15:32:57.350Z,94636.59
2023-05-20T15:35:24.038Z,94633.25
2023-05-20T15:37:51.581Z,94628.31
2023-05-20T15:40:18.244Z,94632.59
2023-05-20T15:42:45.071Z,94620.19
2023-05-20T15:45:11.964Z,94617.63
2023-05-20T15:47:40.803Z,94612.81
2023-05-20T15:50:08.636Z,94613.28
2023-05-20T15:52:35.450Z,94613.75
2023-05-20T15:55:02.242Z,94615.81
2023-05-20T15:57:30.594Z,94617.06
2023-05-20T15:59:57.808Z,94617.19
2023-05-20T16:02:25.225Z,94616.59
2023-05-20T16:04:52.479Z,94608.75
2023-05-20T16:07:19.648Z,94611.44
2023-05-20T16:09:46.286Z,94612.16
2023-05-20T16:12:13.179Z,94610.44
2023-05-20T16:14:39.781Z,94607.47
2023-05-20T16:17:06.525Z,94609.75
2023-05-20T16:19:33.501Z,94608.03
2023-05-20T16:22:00.363Z,94608.84
2023-05-20T16:24:27.097Z,94613.50
2023-05-20T16:26:54.200Z,94621.03
2023-05-20T16:29:21.059Z,94612.38
2023-05-20T16:31:47.851Z,94621.16
2023-05-20T16:34:15.935Z,94615.94
2023-05-20T16:36:42.526Z,94614.84
2023-05-20T16:39:09.468Z,94622.28
2023-05-20T16:41:36.614Z,94620.31
2023-05-20T16:44:03.246Z,94626.72
2023-05-20T16:46:29.887Z,94624.47
2023-05-20T16:48:57.954Z,94628.63
2023-05-20T16:51:24.978Z,94631.81
2023-05-20T16:53:51.922Z,94628.63
2023-05-20T16:56:20.234Z,94629.81
2023-05-20T16:58:46.936Z,94626.66
2023-05-20T17:01:13.596Z,94627.34
2023-05-20T17:03:40.580Z,94633.59
2023-05-20T17:06:07.447Z,94628.09
2023-05-20T17:08:34.018Z,94637.31
2023-05-20T17:11:01.443Z,94636.88
2023-05-20T17:13:28.060Z,94637.09
2023-05-20T17:15:54.672Z,94639.06
2023-05-20T17:18:21.671Z,94638.97
2023-05-20T17:20:48.283Z,94642.03
2023-05-20T17:23:15.250Z,94635.63
2023-05-20T17:25:42.120Z,94639.28
2023-05-20T17:28:08.699Z,94641.13
2023-05-20T17:30:36.061Z,94643.63
2023-05-20T17:33:02.910Z,94643.16
2023-05-20T17:35:31.741Z,94636.75
2023-05-20T17:37:58.564Z,94641.88
2023-05-20T17:40:25.313Z,94644.72
2023-05-20T17:42:52.233Z,94639.13
2023-05-20T17:45:18.932Z,94638.38
2023-05-20T17:47:45.694Z,94638.22
2023-05-20T17:50:14.556Z,94643.75
2023-05-20T17:52:41.411Z,94642.41
2023-05-20T17:55:08.186Z,94640.47
2023-05-20T17:57:34.952Z,94633.69
2023-05-20T18:00:02.408Z,94632.88
2023-05-20T18:02:32.048Z,94635.50
2023-05-20T18:04:58.672Z,94637.75
2023-05-20T18:07:27.181Z,94640.56
2023-05-20T18:09:54.016Z,94636.81
2023-05-20T18:12:25.573Z,94636.22
2023-05-20T18:14:52.347Z,94639.63
2023-05-20T18:17:19.254Z,94639.03
2023-05-20T18:19:46.003Z,94637.84
2023-05-20T18:22:12.741Z,94643.06
2023-05-20T18:24:39.442Z,94644.72
2023-05-20T18:27:06.164Z,94642.72
2023-05-20T18:29:33.081Z,94639.72
2023-05-20T18:31:59.739Z,94642.38
2023-05-20T18:34:26.841Z,94635.56
2023-05-20T18:36:53.618Z,94646.22
2023-05-20T18:39:21.073Z,94638.44
2023-05-20T18:41:48.370Z,94639.84
2023-05-20T18:44:18.839Z,94642.47
2023-05-20T18:46:46.101Z,94638.84
2023-05-20T18:49:13.108Z,94644.50
2023-05-20T18:51:40.763Z,94647.09
2023-05-20T18:54:08.304Z,94648.13
2023-05-20T18:56:35.847Z,94647.31
2023-05-20T18:59:02.446Z,94641.28
2023-05-20T19:01:29.576Z,94646.72
2023-05-20T19:03:56.399Z,94646.50
2023-05-20T19:06:23.514Z,94648.72
2023-05-20T19:08:50.426Z,94644.91
2023-05-20T19:11:17.142Z,94653.50
2023-05-20T19:13:43.933Z,94661.69
2023-05-20T19:16:10.708Z,94662.06
2023-05-20T19:18:37.361Z,94666.47
2023-05-20T19:21:04.129Z,94662.84
2023-05-20T19:23:32.297Z,94663.88
2023-05-20T19:25:58.938Z,94664.03
2023-05-20T19:28:25.602Z,94672.88
2023-05-20T19:30:52.269Z,94678.09
2023-05-20T19:33:20.927Z,94686.09
2023-05-20T19:35:47.694Z,94682.03
2023-05-20T19:38:14.450Z,94683.22
2023-05-20T19:40:41.068Z,94686.84
2023-05-20T19:43:07.785Z,94689.81
2023-05-20T19:45:36.743Z,94694.00
2023-05-20T19:48:04.491Z,94694.81
2023-05-20T19:50:31.864Z,94688.94
2023-05-20T19:52:58.807Z,94683.13
2023-05-20T19:55:25.925Z,94690.94
2023-05-20T19:57:53.526Z,94691.16
2023-05-20T20:00:21.472Z,94695.34
2023-05-20T20:02:48.951Z,94691.91
2023-05-20T20:05:16.193Z,94691.91
2023-05-20T20:07:42.956Z,94690.84
2023-05-20T20:10:10.567Z,94688.44
2023-05-20T20:12:37.271Z,94682.03
2023-05-20T20:15:04.837Z,94685.81
2023-05-20T20:17:33.686Z,94685.41
2023-05-20T20:20:01.117Z,94687.41
2023-05-20T20:22:27.891Z,94686.97
2023-05-20T20:24:54.469Z,94690.59
2023-05-20T20:27:23.983Z,94688.16
2023-05-20T20:29:51.201Z,94693.09
2023-05-20T20:32:17.967Z,94692.06
2023-05-20T20:34:46.136Z,94698.06
2023-05-20T20:37:14.841Z,94694.16
2023-05-20T20:39:41.823Z,94698.22
2023-05-20T20:42:08.680Z,94703.13
2023-05-20T20:44:35.510Z,94703.72
2023-05-20T20:47:04.380Z,94699.03
2023-05-20T20:49:32.134Z,94703.41
2023-05-20T20:51:59.483Z,94704.53
2023-05-20T20:54:26.392Z,94709.66
2023-05-20T20:56:56.501Z,94704.03
2023-05-20T20:59:27.005Z,94703.59
2023-05-20T21:01:54.467Z,94704.25
2023-05-20T21:04:21.463Z,94699.72
2023-05-20T21:06:48.143Z,94699.06
2023-05-20T21:09:15.593Z,94699.16
2023-05-20T21:11:42.465Z,94701.47
2023-05-20T21:14:09.673Z,94700.78
2023-05-20T21:16:36.364Z,94699.34
2023-05-20T21:21:30.853Z,94694.97
2023-05-20T21:23:57.787Z,94695.16
2023-05-20T21:26:25.803Z,94699.81
2023-05-20T21:28:52.923Z,94688.91
2023-05-20T21:31:19.971Z,94693.38
2023-05-20T21:33:46.727Z,94688.88
2023-05-20T21:36:13.328Z,94684.25
2023-05-20T21:38:40.285Z,94687.28
2023-05-20T21:41:07.611Z,94685.41
2023-05-20T21:43:35.850Z,94687.03
2023-05-20T21:46:02.621Z,94688.00
2023-05-20T21:48:29.260Z,94687.47
2023-05-20T21:50:56.361Z,94685.13
2023-05-20T21:53:23.014Z,94683.06
2023-05-20T21:55:49.863Z,94680.84
2023-05-20T21:58:16.634Z,94687.63
2023-05-20T22:00:43.472Z,94678.75
2023-05-20T22:03:10.163Z,94685.56
2023-05-20T22:05:37.434Z,94685.91
2023-05-20T22:08:04.650Z,94682.44
2023-05-20T22:10:34.204Z,94680.72
2023-05-20T22:13:02.061Z,94671.16
2023-05-20T22:15:28.849Z,94688.44
2023-05-20T22:17:55.830Z,94681.69
2023-05-20T22:20:22.828Z,94682.78
2023-05-20T22:22:49.664Z,94673.28
2023-05-20T22:25:17.224Z,94676.03
2023-05-20T22:27:44.083Z,94665.22
2023-05-20T22:30:12.350Z,94662.19
2023-05-20T22:32:40.428Z,94663.63
2023-05-20T22:35:07.527Z,94671.50
2023-05-20T22:37:34.155Z,94666.47
2023-05-20T22:40:00.978Z,94661.19
2023-05-20T22:42:27.534Z,94670.28
2023-05-20T22:44:54.221Z,94674.09
2023-05-20T22:47:21.251Z,94668.75
2023-05-20T22:49:50.941Z,94664.25
2023-05-20T22:52:18.883Z,94667.19
2023-05-20T22:54:45.526Z,94663.16
2023-05-20T22:57:12.244Z,94657.06
2023-05-20T22:59:39.047Z,94658.28
2023-05-20T23:02:06.778Z,94652.16
2023-05-20T23:04:34.119Z,94649.47
2023-05-20T23:07:01.160Z,94645.66
2023-05-20T23:09:27.873Z,94651.03
2023-05-20T23:11:54.700Z,94641.13
2023-05-20T23:14:21.367Z,94642.75
2023-05-20T23:16:48.039Z,94647.41
2023-05-20T23:19:15.230Z,94644.72
2023-05-20T23:21:42.998Z,94644.75
2023-05-20T23:24:09.648Z,94642.97
2023-05-20T23:26:37.543Z,94642.75
2023-05-20T23:29:05.125Z,94645.22
2023-05-20T23:31:33.041Z,94643.13
2023-05-20T23:33:59.916Z,94638.34
2023-05-20T23:36:26.883Z,94639.53
2023-05-20T23:38:53.486Z,94640.53
2023-05-20T23:41:20.213Z,94642.69
2023-05-20T23:43:47.147Z,94629.66
2023-05-20T23:46:14.500Z,94634.03
2023-05-20T23:48:41.729Z,94624.19
2023-05-20T23:51:10.331Z,94622.91
2023-05-20T23:53:36.955Z,94619.56
2023-05-20T23:56:04.369Z,94617.50
2023-05-20T23:58:31.159Z,94623.53
